Time,TemperatureF,DewpointF,PressureIn,WindDirection,WindDirectionDegrees,WindSpeedMPH,WindSpeedGustMPH,Humidity,HourlyPrecipIn,Conditions,Clouds,dailyrainin,SoftwareType,DateUTC
2015-01-30 00:00:00,50.9,45.0,30.06,SSE,160,0.0,0.0,81,0.00,,,0.00,weatherlink.com 1.10,2015-01-30 08:00:00,
2015-01-30 00:15:00,49.8,45.0,30.06,SSE,160,0.0,0.0,82,0.00,,,0.00,weatherlink.com 1.10,2015-01-30 08:15:00,
2015-01-30 00:30:00,48.8,44.0,30.06,SSE,160,0.0,0.0,84,0.00,,,0.00,weatherlink.com 1.10,2015-01-30 08:30:00,
2015-01-30 00:46:00,48.4,44.0,30.05,SSE,160,0.0,0.0,85,0.00,,,0.00,weatherlink.com 1.10,2015-01-30 08:46:00,
2015-01-30 01:01:00,48.0,44.0,30.04,SSE,160,0.0,0.0,86,0.00,,,0.00,weatherlink.com 1.10,2015-01-30 09:01:00,
2015-01-30 01:16:00,48.0,45.0,30.04,SSE,160,0.0,0.0,88,0.00,,,0.00,weatherlink.com 1.10,2015-01-30 09:16:00,
2015-01-30 01:31:00,48.1,45.0,30.04,SSE,160,0.0,0.0,89,0.00,,,0.00,weatherlink.com 1.10,2015-01-30 09:31:00,
2015-01-30 01:46:00,48.1,45.0,30.04,SW,236,0.0,1.0,88,0.00,,,0.00,weatherlink.com 1.10,2015-01-30 09:46:00,
2015-01-30 02:01:00,47.5,44.0,30.04,SE,128,0.0,0.0,87,0.00,,,0.00,weatherlink.com 1.10,2015-01-30 10:01:00,
2015-01-30 02:16:00,47.4,44.0,30.04,SE,128,0.0,0.0,89,0.00,,,0.00,weatherlink.com 1.10,2015-01-30 10:16:00,
2015-01-30 02:31:00,46.8,44.0,30.04,SE,128,0.0,0.0,89,0.00,,,0.00,weatherlink.com 1.10,2015-01-30 10:31:00,
2015-01-30 02:46:00,46.8,44.0,30.03,SE,128,0.0,0.0,90,0.00,,,0.00,weatherlink.com 1.10,2015-01-30 10:46:00,
2015-01-30 03:01:00,47.1,45.0,30.03,SE,128,0.0,0.0,92,0.00,,,0.00,weatherlink.com 1.10,2015-01-30 11:01:00,
2015-01-30 03:16:00,46.9,45.0,30.03,SE,128,0.0,1.0,91,0.00,,,0.00,weatherlink.com 1.10,2015-01-30 11:16:00,
2015-01-30 03:31:00,45.9,44.0,30.02,SE,128,0.0,0.0,91,0.00,,,0.00,weatherlink.com 1.10,2015-01-30 11:31:00,
2015-01-30 03:46:00,45.9,44.0,30.02,SE,128,0.0,0.0,92,0.00,,,0.00,weatherlink.com 1.10,2015-01-30 11:46:00,
2015-01-30 04:01:00,46.1,44.0,30.02,SE,128,0.0,0.0,92,0.00,,,0.00,weatherlink.com 1.10,2015-01-30 12:01:00,
2015-01-30 04:17:00,45.9,44.0,30.02,SE,128,0.0,0.0,93,0.00,,,0.00,weatherlink.com 1.10,2015-01-30 12:17:00,
2015-01-30 04:31:00,45.9,44.0,30.02,SE,128,0.0,0.0,93,0.00,,,0.00,weatherlink.com 1.10,2015-01-30 12:31:00,
2015-01-30 04:46:00,45.9,44.0,30.02,SE,128,0.0,0.0,93,0.00,,,0.00,weatherlink.com 1.10,2015-01-30 12:46:00,
2015-01-30 05:01:00,45.6,44.0,30.02,SE,128,0.0,0.0,94,0.00,,,0.00,weatherlink.com 1.10,2015-01-30 13:01:00,
2015-01-30 05:16:00,45.5,44.0,30.01,SE,128,0.0,0.0,94,0.00,,,0.00,weatherlink.com 1.10,2015-01-30 13:16:00,
2015-01-30 05:31:00,45.1,44.0,30.02,SE,128,0.0,0.0,94,0.00,,,0.00,weatherlink.com 1.10,2015-01-30 13:31:00,
2015-01-30 05:46:00,44.9,43.0,30.02,SE,128,0.0,0.0,94,0.00,,,0.00,weatherlink.com 1.10,2015-01-30 13:46:00,
2015-01-30 06:01:00,44.8,43.0,30.01,SE,128,0.0,0.0,94,0.00,,,0.00,weatherlink.com 1.10,2015-01-30 14:01:00,
2015-01-30 06:16:00,45.5,45.0,30.01,SE,128,0.0,1.0,96,0.00,,,0.00,weatherlink.com 1.10,2015-01-30 14:16:00,
2015-01-30 06:31:00,45.6,44.0,30.01,SE,128,0.0,0.0,95,0.00,,,0.00,weatherlink.com 1.10,2015-01-30 14:31:00,
2015-01-30 06:46:00,45.2,44.0,30.01,SE,128,0.0,0.0,94,0.00,,,0.00,weatherlink.com 1.10,2015-01-30 14:46:00,
2015-01-30 07:01:00,45.9,45.0,30.02,SSE,160,0.0,1.0,96,0.00,,,0.00,weatherlink.com 1.10,2015-01-30 15:01:00,
2015-01-30 07:16:00,46.4,45.0,30.02,SSW,203,0.0,0.0,96,0.00,,,0.00,weatherlink.com 1.10,2015-01-30 15:16:00,
2015-01-30 07:31:00,45.6,44.0,30.02,SSW,203,0.0,0.0,95,0.00,,,0.00,weatherlink.com 1.10,2015-01-30 15:31:00,
2015-01-30 07:46:00,45.1,44.0,30.02,SSW,203,0.0,0.0,95,0.00,,,0.00,weatherlink.com 1.10,2015-01-30 15:46:00,
2015-01-30 08:01:00,45.9,45.0,30.02,SSW,203,0.0,0.0,96,0.00,,,0.00,weatherlink.com 1.10,2015-01-30 16:01:00,
2015-01-30 08:16:00,46.6,46.0,30.02,SSW,203,0.0,0.0,96,0.00,,,0.00,weatherlink.com 1.10,2015-01-30 16:16:00,
2015-01-30 08:31:00,47.3,46.0,30.02,SSW,203,0.0,0.0,96,0.00,,,0.00,weatherlink.com 1.10,2015-01-30 16:31:00,
2015-01-30 08:46:00,48.5,48.0,30.02,SSW,203,0.0,0.0,96,0.00,,,0.00,weatherlink.com 1.10,2015-01-30 16:46:00,
2015-01-30 09:01:00,49.7,48.0,30.02,SSW,203,0.0,0.0,93,0.00,,,0.00,weatherlink.com 1.10,2015-01-30 17:01:00,
2015-01-30 09:16:00,51.7,49.0,30.02,SSW,203,0.0,0.0,89,0.00,,,0.00,weatherlink.com 1.10,2015-01-30 17:16:00,
2015-01-30 09:31:00,53.1,49.0,30.02,North,349,0.0,1.0,87,0.00,,,0.00,weatherlink.com 1.10,2015-01-30 17:31:00,
2015-01-30 09:46:00,55.7,51.0,30.02,SE,136,0.0,0.0,83,0.00,,,0.00,weatherlink.com 1.10,2015-01-30 17:46:00,
2015-01-30 10:01:00,57.5,50.0,30.02,SSE,148,0.0,0.0,76,0.00,,,0.00,weatherlink.com 1.10,2015-01-30 18:01:00,
2015-01-30 10:17:00,59.4,51.0,30.01,SW,227,0.0,0.0,73,0.00,,,0.00,weatherlink.com 1.10,2015-01-30 18:17:00,
2015-01-30 10:32:00,59.7,52.0,30.01,NNW,337,0.0,2.0,77,0.00,,,0.00,weatherlink.com 1.10,2015-01-30 18:32:00,
2015-01-30 10:47:00,60.4,52.0,30.01,NNW,344,0.0,2.0,75,0.00,,,0.00,weatherlink.com 1.10,2015-01-30 18:47:00,
2015-01-30 11:02:00,61.4,53.0,30.01,North,351,0.0,1.0,73,0.00,,,0.00,weatherlink.com 1.10,2015-01-30 19:02:00,
2015-01-30 11:17:00,62.3,51.0,30.00,NNW,348,1.0,1.0,67,0.00,,,0.00,weatherlink.com 1.10,2015-01-30 19:17:00,
2015-01-30 11:32:00,63.1,53.0,29.99,North,349,0.0,2.0,69,0.00,,,0.00,weatherlink.com 1.10,2015-01-30 19:32:00,
2015-01-30 11:47:00,65.2,53.0,29.98,North,359,0.0,2.0,66,0.00,,,0.00,weatherlink.com 1.10,2015-01-30 19:47:00,
2015-01-30 12:02:00,65.5,48.0,29.97,North,354,0.0,3.0,54,0.00,,,0.00,weatherlink.com 1.10,2015-01-30 20:02:00,
2015-01-30 12:17:00,65.4,48.0,29.97,NNW,339,0.0,3.0,54,0.00,,,0.00,weatherlink.com 1.10,2015-01-30 20:17:00,
2015-01-30 12:32:00,66.2,49.0,29.95,North,9,0.0,2.0,54,0.00,,,0.00,weatherlink.com 1.10,2015-01-30 20:32:00,
2015-01-30 12:47:00,66.4,47.0,29.95,NNW,345,1.0,2.0,50,0.00,,,0.00,weatherlink.com 1.10,2015-01-30 20:47:00,
2015-01-30 13:02:00,67.2,46.0,29.94,North,353,1.0,4.0,46,0.00,,,0.00,weatherlink.com 1.10,2015-01-30 21:02:00,
2015-01-30 13:17:00,67.4,45.0,29.93,NNW,330,0.0,3.0,45,0.00,,,0.00,weatherlink.com 1.10,2015-01-30 21:17:00,
2015-01-30 13:32:00,67.2,44.0,29.93,WNW,302,1.0,7.0,44,0.00,,,0.00,weatherlink.com 1.10,2015-01-30 21:32:00,
2015-01-30 13:47:00,67.1,44.0,29.92,NW,306,0.0,4.0,44,0.00,,,0.00,weatherlink.com 1.10,2015-01-30 21:47:00,